createdAt,value
2023-05-21T00:01:06.141Z,19.60
2023-05-21T00:03:34.285Z,19.50
2023-05-21T00:06:03.620Z,19.50
2023-05-21T00:08:30.603Z,19.50
2023-05-21T00:13:24.848Z,19.50
2023-05-21T00:15:51.707Z,19.40
2023-05-21T00:18:18.562Z,19.40
2023-05-21T00:20:45.781Z,19.40
2023-05-21T00:23:12.807Z,19.40
2023-05-21T00:25:39.649Z,19.40
2023-05-21T00:28:06.551Z,19.30
2023-05-21T00:30:33.346Z,21.20
2023-05-21T00:33:02.685Z,19.30
2023-05-21T00:35:30.176Z,19.30
2023-05-21T00:37:57.288Z,19.30
2023-05-21T00:40:24.292Z,19.30
2023-05-21T00:42:51.114Z,19.30
2023-05-21T00:45:17.972Z,19.20
2023-05-21T00:47:48.319Z,19.30
2023-05-21T00:50:16.229Z,19.20
2023-05-21T00:52:45.640Z,19.20
2023-05-21T00:55:12.940Z,19.20
2023-05-21T00:57:40.903Z,19.20
2023-05-21T01:00:09.017Z,19.20
2023-05-21T01:02:38.128Z,19.10
2023-05-21T01:05:06.773Z,19.10
2023-05-21T01:07:41.400Z,19.10
2023-05-21T01:10:11.488Z,19.10
2023-05-21T01:12:41.692Z,19.10
2023-05-21T01:15:10.929Z,19.10
2023-05-21T01:17:39.813Z,19.00
2023-05-21T01:20:11.072Z,19.00
2023-05-21T01:22:51.651Z,19.00
2023-05-21T01:25:18.787Z,19.00
2023-05-21T01:27:45.909Z,19.00
2023-05-21T01:30:13.914Z,19.00
2023-05-21T01:33:04.939Z,19.00
2023-05-21T01:35:38.876Z,19.00
2023-05-21T01:38:27.434Z,19.00
2023-05-21T01:41:05.616Z,18.90
2023-05-21T01:43:37.622Z,18.90
2023-05-21T01:46:09.604Z,18.80
2023-05-21T01:51:06.268Z,18.90
2023-05-21T01:53:33.173Z,18.90
2023-05-21T01:56:01.692Z,18.90
2023-05-21T01:58:28.675Z,18.80
2023-05-21T02:00:55.507Z,18.80
2023-05-21T02:05:51.954Z,18.80
2023-05-21T02:08:19.820Z,18.80
2023-05-21T02:10:46.605Z,18.80
2023-05-21T02:13:13.389Z,18.70
2023-05-21T02:15:40.266Z,18.70
2023-05-21T02:18:07.127Z,18.70
2023-05-21T02:20:33.967Z,18.70
2023-05-21T02:23:00.874Z,18.70
2023-05-21T02:25:27.729Z,18.70
2023-05-21T02:27:56.629Z,18.60
2023-05-21T02:30:23.435Z,18.60
2023-05-21T02:32:50.817Z,18.60
2023-05-21T02:35:17.884Z,18.60
2023-05-21T02:37:44.728Z,18.60
2023-05-21T02:40:13.107Z,19.00
2023-05-21T02:42:41.466Z,18.50
2023-05-21T02:45:10.996Z,18.50
2023-05-21T02:47:41.105Z,18.50
2023-05-21T02:50:09.294Z,18.40
2023-05-21T02:52:36.456Z,18.40
2023-05-21T02:55:03.377Z,18.40
2023-05-21T02:57:30.159Z,18.40
2023-05-21T02:59:56.938Z,18.40
2023-05-21T03:02:24.467Z,18.30
2023-05-21T03:04:51.568Z,18.30
2023-05-21T03:07:19.820Z,18.30
2023-05-21T03:09:46.904Z,18.30
2023-05-21T03:12:13.867Z,18.20
2023-05-21T03:14:42.660Z,18.30
2023-05-21T03:17:14.144Z,18.20
2023-05-21T03:19:42.092Z,18.20
2023-05-21T03:22:09.984Z,18.20
2023-05-21T03:24:38.229Z,18.20
2023-05-21T03:27:07.029Z,18.20
2023-05-21T03:29:34.810Z,18.20
2023-05-21T03:32:02.618Z,18.20
2023-05-21T03:34:29.584Z,18.20
2023-05-21T03:36:56.664Z,18.20
2023-05-21T03:41:51.173Z,18.20
2023-05-21T03:44:18.048Z,18.20
2023-05-21T03:46:45.643Z,18.30
2023-05-21T03:49:14.131Z,18.20
2023-05-21T03:51:40.881Z,18.30
2023-05-21T03:54:07.658Z,18.30
2023-05-21T03:56:34.429Z,18.30
2023-05-21T03:59:01.485Z,18.40
2023-05-21T04:01:28.487Z,18.40
2023-05-21T04:03:55.694Z,18.40
2023-05-21T04:06:22.832Z,18.50
2023-05-21T04:08:50.918Z,18.50
2023-05-21T04:11:17.733Z,18.50
2023-05-21T04:13:44.548Z,18.60
2023-05-21T04:16:14.575Z,18.60
2023-05-21T04:18:44.141Z,18.60
2023-05-21T04:21:12.642Z,18.70
2023-05-21T04:23:39.680Z,18.80
2023-05-21T04:26:07.580Z,18.80
2023-05-21T04:28:35.292Z,18.90
2023-05-21T04:31:02.243Z,19.00
2023-05-21T04:33:30.370Z,18.90
2023-05-21T04:35:57.800Z,18.90
2023-05-21T04:38:24.741Z,19.00
2023-05-21T04:40:51.899Z,19.10
2023-05-21T04:43:25.654Z,19.10
2023-05-21T04:45:56.238Z,19.20
2023-05-21T04:48:24.857Z,19.30
2023-05-21T04:50:53.507Z,19.30
2023-05-21T04:53:20.681Z,19.40
2023-05-21T04:55:47.987Z,19.40
2023-05-21T04:58:18.010Z,19.50
2023-05-21T05:00:50.961Z,19.60
2023-05-21T05:03:18.196Z,19.70
2023-05-21T05:05:45.116Z,19.70
2023-05-21T05:08:13.981Z,19.80
2023-05-21T05:10:43.524Z,19.80
2023-05-21T05:13:10.491Z,20.10
2023-05-21T05:15:37.502Z,20.20
2023-05-21T05:18:04.670Z,20.20
2023-05-21T05:20:31.512Z,20.50
2023-05-21T05:22:58.288Z,20.40
2023-05-21T05:25:25.260Z,20.50
2023-05-21T05:27:52.080Z,20.90
2023-05-21T05:32:46.773Z,21.00
2023-05-21T05:35:13.636Z,21.20
2023-05-21T05:37:40.428Z,21.30
2023-05-21T05:40:08.120Z,21.60
2023-05-21T05:42:34.967Z,21.50
2023-05-21T05:45:01.777Z,21.60
2023-05-21T05:47:28.644Z,21.70
2023-05-21T05:49:55.450Z,21.70
2023-05-21T05:52:22.278Z,21.90
2023-05-21T05:54:49.108Z,21.90
2023-05-21T05:57:15.939Z,22.00
2023-05-21T05:59:42.703Z,22.10
2023-05-21T06:02:09.632Z,22.10
2023-05-21T06:04:36.421Z,22.10
2023-05-21T06:07:03.287Z,22.10
2023-05-21T06:09:30.088Z,22.20
2023-05-21T06:11:56.964Z,22.30
2023-05-21T06:14:23.812Z,22.30
2023-05-21T06:16:51.342Z,22.40
2023-05-21T06:19:18.223Z,22.40
2023-05-21T06:21:45.027Z,22.40
2023-05-21T06:24:11.835Z,22.50
2023-05-21T06:26:38.621Z,22.60
2023-05-21T06:29:05.566Z,22.60
2023-05-21T06:31:33.184Z,22.70
2023-05-21T06:34:01.026Z,22.70
2023-05-21T06:36:29.969Z,22.70
2023-05-21T06:38:57.184Z,22.80
2023-05-21T06:41:24.398Z,22.80
2023-05-21T06:43:51.437Z,22.70
2023-05-21T06:46:18.376Z,22.80
2023-05-21T06:48:46.290Z,22.90
2023-05-21T06:51:13.230Z,22.90
2023-05-21T06:53:40.182Z,22.90
2023-05-21T06:56:07.227Z,23.00
2023-05-21T06:58:34.014Z,23.00
2023-05-21T07:01:01.395Z,23.10
2023-05-21T07:03:28.423Z,23.00
2023-05-21T07:05:55.249Z,23.10
2023-05-21T07:08:22.155Z,23.00
2023-05-21T07:10:49.853Z,23.10
2023-05-21T07:13:16.859Z,23.20
2023-05-21T07:15:43.672Z,23.30
2023-05-21T07:18:10.512Z,23.40
2023-05-21T07:20:37.328Z,23.40
2023-05-21T07:23:04.153Z,23.50
2023-05-21T07:25:31.017Z,23.60
2023-05-21T07:27:57.817Z,23.60
2023-05-21T07:30:24.691Z,23.70
2023-05-21T07:32:51.587Z,23.80
2023-05-21T07:35:20.497Z,23.80
2023-05-21T07:37:48.063Z,24.00
2023-05-21T07:40:14.976Z,24.10
2023-05-21T07:42:42.030Z,24.20
2023-05-21T07:45:09.476Z,24.20
2023-05-21T07:47:36.323Z,24.30
2023-05-21T07:50:03.283Z,24.30
2023-05-21T07:52:30.184Z,24.40
2023-05-21T07:54:56.977Z,24.50
2023-05-21T07:57:23.804Z,24.50
2023-05-21T07:59:51.139Z,24.50
2023-05-21T08:04:45.540Z,24.70
2023-05-21T08:07:12.986Z,24.80
2023-05-21T08:09:39.808Z,24.90
2023-05-21T08:12:07.322Z,24.90
2023-05-21T08:14:34.130Z,25.00
2023-05-21T08:17:01.006Z,25.10
2023-05-21T08:19:28.082Z,25.10
2023-05-21T08:21:54.934Z,25.20
2023-05-21T08:24:21.710Z,25.20
2023-05-21T08:26:50.490Z,25.30
2023-05-21T08:29:19.458Z,25.30
2023-05-21T08:31:46.323Z,25.30
2023-05-21T08:34:13.093Z,25.40
2023-05-21T08:36:43.037Z,25.50
2023-05-21T08:39:09.853Z,25.50
2023-05-21T08:41:39.709Z,25.50
2023-05-21T08:44:12.371Z,25.60
2023-05-21T08:46:44.387Z,25.60
2023-05-21T08:49:14.050Z,25.60
2023-05-21T08:51:41.753Z,25.60
2023-05-21T08:54:09.425Z,25.70
2023-05-21T08:56:36.657Z,25.70
2023-05-21T08:59:03.460Z,25.90
2023-05-21T09:01:33.395Z,25.80
2023-05-21T09:04:16.155Z,26.00
2023-05-21T09:06:47.654Z,26.20
2023-05-21T09:09:30.806Z,26.20
2023-05-21T09:11:57.581Z,26.30
2023-05-21T09:14:25.932Z,26.40
2023-05-21T09:16:52.863Z,26.50
2023-05-21T09:19:23.002Z,26.50
2023-05-21T09:21:52.930Z,26.60
2023-05-21T09:24:23.012Z,26.60
2023-05-21T09:26:50.064Z,26.70
2023-05-21T09:29:16.932Z,26.70
2023-05-21T09:31:47.786Z,26.70
2023-05-21T09:34:14.892Z,26.80
2023-05-21T09:36:42.488Z,26.90
2023-05-21T09:39:11.777Z,27.00
2023-05-21T09:41:42.111Z,27.00
2023-05-21T09:44:10.949Z,27.00
2023-05-21T09:46:40.380Z,27.20
2023-05-21T09:49:21.880Z,27.30
2023-05-21T09:51:48.642Z,27.30
2023-05-21T09:54:15.467Z,27.40
2023-05-21T09:56:42.494Z,27.50
2023-05-21T09:59:09.519Z,27.60
2023-05-21T10:01:37.472Z,27.70
2023-05-21T10:04:09.098Z,27.70
2023-05-21T10:06:43.711Z,27.70
2023-05-21T10:09:12.010Z,27.80
2023-05-21T10:11:44.755Z,27.90
2023-05-21T10:14:20.453Z,28.00
2023-05-21T10:16:48.292Z,28.10
2023-05-21T10:19:16.919Z,28.10
2023-05-21T10:21:45.710Z,28.10
2023-05-21T10:24:13.641Z,28.20
2023-05-21T10:26:42.332Z,28.20
2023-05-21T10:29:09.985Z,28.20
2023-05-21T10:31:39.122Z,28.20
2023-05-21T10:34:06.384Z,28.20
2023-05-21T10:36:35.680Z,28.30
2023-05-21T10:39:03.260Z,28.30
2023-05-21T10:41:47.460Z,28.30
2023-05-21T10:44:51.909Z,28.40
2023-05-21T10:47:55.798Z,28.50
2023-05-21T10:50:45.691Z,28.50
2023-05-21T10:53:59.873Z,28.60
2023-05-21T10:56:39.851Z,28.70
2023-05-21T10:59:30.100Z,28.70
2023-05-21T11:01:58.118Z,28.80
2023-05-21T11:04:29.482Z,28.80
2023-05-21T11:06:58.772Z,28.80
2023-05-21T11:09:27.044Z,28.90
2023-05-21T11:12:01.116Z,29.00
2023-05-21T11:14:39.042Z,29.00
2023-05-21T11:17:08.995Z,29.00
2023-05-21T11:19:38.752Z,29.10
2023-05-21T11:22:22.104Z,29.10
2023-05-21T11:24:51.131Z,29.10
2023-05-21T11:27:38.673Z,29.10
2023-05-21T11:30:17.859Z,29.20
2023-05-21T11:33:14.016Z,29.20
2023-05-21T11:35:55.690Z,29.30
2023-05-21T11:38:22.470Z,29.30
2023-05-21T11:40:56.537Z,29.40
2023-05-21T11:43:24.083Z,29.50
2023-05-21T11:45:53.298Z,29.60
2023-05-21T11:48:27.116Z,29.60
2023-05-21T11:50:55.001Z,29.70
2023-05-21T11:53:22.067Z,29.70
2023-05-21T11:55:49.022Z,29.80
2023-05-21T11:58:19.323Z,29.80
2023-05-21T12:00:46.261Z,29.90
2023-05-21T12:03:14.740Z,30.00
2023-05-21T12:05:49.111Z,30.00
2023-05-21T12:08:25.540Z,30.10
2023-05-21T12:10:59.880Z,30.10
2023-05-21T12:13:27.880Z,30.20
2023-05-21T12:15:54.996Z,30.30
2023-05-21T12:18:22.014Z,30.30
2023-05-21T12:20:51.952Z,30.30
2023-05-21T12:23:25.660Z,30.30
2023-05-21T12:25:53.691Z,30.40
2023-05-21T12:28:24.738Z,30.40
2023-05-21T12:30:53.487Z,30.40
2023-05-21T12:33:21.633Z,30.40
2023-05-21T12:35:50.553Z,30.40
2023-05-21T12:38:17.591Z,30.40
2023-05-21T12:40:45.573Z,30.40
2023-05-21T12:43:12.674Z,30.40
2023-05-21T12:45:41.371Z,30.40
2023-05-21T12:48:08.501Z,30.40
2023-05-21T12:50:40.572Z,30.40
2023-05-21T12:53:10.740Z,30.50
2023-05-21T12:55:37.511Z,30.50
2023-05-21T12:58:08.190Z,30.50
2023-05-21T13:00:35.625Z,30.50
2023-05-21T13:03:04.452Z,30.60
2023-05-21T13:05:31.697Z,30.60
2023-05-21T13:07:58.484Z,30.60
2023-05-21T13:10:25.318Z,30.70
2023-05-21T13:12:52.081Z,30.70
2023-05-21T13:15:19.024Z,30.70
2023-05-21T13:17:47.229Z,30.60
2023-05-21T13:20:16.811Z,30.60
2023-05-21T13:22:49.439Z,30.70
2023-05-21T13:25:24.372Z,30.70
2023-05-21T13:27:52.994Z,31.10
2023-05-21T13:30:21.745Z,30.60
2023-05-21T13:32:48.949Z,30.60
2023-05-21T13:35:16.698Z,30.50
2023-05-21T13:37:43.965Z,30.50
2023-05-21T13:40:16.852Z,30.50
2023-05-21T13:42:48.768Z,30.40
2023-05-21T13:45:19.227Z,30.30
2023-05-21T13:47:47.917Z,30.40
2023-05-21T13:50:15.909Z,30.40
2023-05-21T13:52:44.122Z,30.30
2023-05-21T13:55:11.268Z,30.30
2023-05-21T13:57:38.130Z,30.30
2023-05-21T14:00:06.084Z,30.30
2023-05-21T14:02:33.109Z,30.30
2023-05-21T14:04:59.963Z,30.30
2023-05-21T14:07:27.952Z,30.40
2023-05-21T14:09:54.846Z,30.40
2023-05-21T14:12:21.761Z,30.40
2023-05-21T14:14:49.879Z,30.40
2023-05-21T14:17:16.773Z,30.50
2023-05-21T14:19:43.533Z,30.50
2023-05-21T14:22:10.388Z,30.50
2023-05-21T14:24:37.191Z,30.60
2023-05-21T14:27:04.076Z,30.60
2023-05-21T14:29:30.879Z,30.70
2023-05-21T14:31:57.719Z,30.60
2023-05-21T14:34:24.688Z,30.60
2023-05-21T14:36:51.471Z,30.60
2023-05-21T14:39:18.305Z,30.60
2023-05-21T14:41:45.197Z,30.60
2023-05-21T14:44:12.049Z,30.60
2023-05-21T14:46:39.629Z,30.60
2023-05-21T14:49:06.550Z,30.60
2023-05-21T14:51:33.347Z,30.60
2023-05-21T14:54:00.172Z,30.60
2023-05-21T14:56:28.115Z,30.60
2023-05-21T14:58:55.922Z,30.60
2023-05-21T15:01:23.187Z,30.60
2023-05-21T15:03:50.271Z,30.60
2023-05-21T15:06:17.167Z,30.60
2023-05-21T15:08:43.936Z,30.60
2023-05-21T15:11:11.465Z,30.60
2023-05-21T15:13:38.977Z,30.60
2023-05-21T15:16:06.474Z,30.60
2023-05-21T15:18:33.654Z,30.60
2023-05-21T15:21:00.587Z,30.60
2023-05-21T15:23:27.606Z,30.60
2023-05-21T15:25:54.458Z,30.60
2023-05-21T15:28:22.903Z,30.60
2023-05-21T15:30:49.697Z,30.60
2023-05-21T15:33:16.482Z,30.50
2023-05-21T15:35:43.644Z,30.60
2023-05-21T15:38:10.899Z,30.50
2023-05-21T15:40:41.940Z,30.50
2023-05-21T15:43:08.822Z,30.50
2023-05-21T15:45:36.256Z,30.40
2023-05-21T15:48:03.307Z,30.40
2023-05-21T15:50:30.140Z,30.30
2023-05-21T15:52:56.939Z,30.30
2023-05-21T15:55:23.761Z,30.30
2023-05-21T15:57:50.569Z,30.30
2023-05-21T16:00:17.459Z,30.20
2023-05-21T16:02:44.374Z,30.20
2023-05-21T16:05:12.426Z,30.10
2023-05-21T16:07:39.196Z,30.10
2023-05-21T16:10:10.268Z,30.00
2023-05-21T16:12:38.346Z,30.00
2023-05-21T16:15:06.281Z,29.90
2023-05-21T16:17:33.074Z,29.90
2023-05-21T16:19:59.972Z,29.90
2023-05-21T16:22:26.756Z,29.80
2023-05-21T16:24:54.726Z,29.80
2023-05-21T16:27:21.552Z,29.90
2023-05-21T16:29:48.306Z,29.80
2023-05-21T16:32:15.158Z,29.80
2023-05-21T16:34:42.010Z,29.80
2023-05-21T16:37:09.720Z,29.80
2023-05-21T16:39:36.882Z,29.80
2023-05-21T16:42:03.926Z,29.80
2023-05-21T16:44:32.013Z,29.80
2023-05-21T16:47:00.054Z,29.80
2023-05-21T16:49:28.018Z,29.70
2023-05-21T16:51:54.999Z,29.70
2023-05-21T16:54:21.978Z,29.70
2023-05-21T16:56:48.818Z,28.80
2023-05-21T16:59:15.837Z,29.70
2023-05-21T17:01:42.969Z,29.60
2023-05-21T17:04:09.863Z,29.60
2023-05-21T17:06:36.758Z,29.50
2023-05-21T17:09:03.911Z,29.60
2023-05-21T17:11:32.289Z,29.50
2023-05-21T17:13:59.067Z,29.40
2023-05-21T17:16:25.925Z,29.40
2023-05-21T17:18:52.845Z,29.30
2023-05-21T17:21:19.815Z,29.30
2023-05-21T17:23:46.731Z,29.30
2023-05-21T17:26:13.969Z,29.30
2023-05-21T17:28:40.851Z,29.10
2023-05-21T17:31:09.475Z,29.20
2023-05-21T17:33:37.929Z,29.00
2023-05-21T17:36:05.132Z,28.90
2023-05-21T17:38:31.971Z,29.00
2023-05-21T17:40:59.260Z,28.90
2023-05-21T17:43:27.587Z,28.80
2023-05-21T17:45:54.517Z,28.80
2023-05-21T17:48:21.549Z,28.70
2023-05-21T17:50:48.402Z,28.60
2023-05-21T17:53:16.132Z,28.60
2023-05-21T17:55:42.954Z,28.60
2023-05-21T17:58:12.690Z,28.50
2023-05-21T18:00:39.542Z,28.50
2023-05-21T18:03:06.417Z,28.40
2023-05-21T18:05:33.433Z,28.40
2023-05-21T18:08:01.393Z,28.40
2023-05-21T18:10:28.615Z,28.30
2023-05-21T18:12:55.396Z,28.20
2023-05-21T18:15:22.235Z,28.20
2023-05-21T18:17:49.740Z,28.10
2023-05-21T18:20:16.697Z,28.00
2023-05-21T18:22:44.629Z,28.00
2023-05-21T18:25:11.629Z,28.00
2023-05-21T18:27:38.407Z,27.90
2023-05-21T18:30:06.831Z,27.80
2023-05-21T18:32:34.552Z,27.80
2023-05-21T18:35:01.429Z,27.80
2023-05-21T18:37:29.135Z,27.70
2023-05-21T18:39:55.954Z,27.60
2023-05-21T18:42:22.748Z,27.70
2023-05-21T18:44:51.443Z,27.50
2023-05-21T18:47:18.345Z,27.40
2023-05-21T18:49:45.132Z,27.40
2023-05-21T18:52:11.917Z,27.30
2023-05-21T18:54:39.050Z,27.30
2023-05-21T18:57:06.091Z,27.20
2023-05-21T19:02:00.309Z,27.10
2023-05-21T19:04:27.474Z,27.10
2023-05-21T19:09:21.741Z,26.90
2023-05-21T19:11:48.879Z,26.90
2023-05-21T19:14:15.714Z,26.90
2023-05-21T19:16:42.586Z,26.80
2023-05-21T19:19:09.411Z,26.70
2023-05-21T19:24:05.995Z,26.60
2023-05-21T19:26:33.141Z,26.60
2023-05-21T19:31:27.138Z,26.50
2023-05-21T19:36:22.304Z,26.40
2023-05-21T19:38:50.682Z,26.40
2023-05-21T19:41:18.811Z,26.30
2023-05-21T19:43:46.340Z,26.30
2023-05-21T19:46:15.909Z,26.20
2023-05-21T19:48:45.018Z,26.20
2023-05-21T19:51:11.834Z,26.20
2023-05-21T19:53:38.694Z,26.20
2023-05-21T19:56:05.785Z,26.10
2023-05-21T19:58:33.177Z,26.00
2023-05-21T20:01:00.116Z,26.00
2023-05-21T20:03:28.002Z,25.90
2023-05-21T20:05:55.014Z,25.90
2023-05-21T20:08:22.285Z,25.90
2023-05-21T20:13:19.405Z,25.80
2023-05-21T20:15:47.716Z,25.80
2023-05-21T20:18:15.370Z,25.70
2023-05-21T20:20:42.976Z,25.60
2023-05-21T20:23:09.808Z,25.70
2023-05-21T20:25:36.606Z,25.60
2023-05-21T20:28:04.299Z,25.60
2023-05-21T20:30:51.932Z,25.60
2023-05-21T20:33:19.939Z,25.50
2023-05-21T20:35:46.713Z,25.50
2023-05-21T20:38:15.943Z,25.40
2023-05-21T20:40:44.233Z,25.30
2023-05-21T20:43:18.653Z,25.40
2023-05-21T20:45:47.479Z,25.40
2023-05-21T20:48:14.958Z,25.30
2023-05-21T20:50:41.860Z,25.40
2023-05-21T20:53:08.735Z,25.30
2023-05-21T20:55:35.573Z,25.30
2023-05-21T20:58:03.453Z,25.20
2023-05-21T21:00:31.704Z,25.20
2023-05-21T21:03:01.099Z,25.10
2023-05-21T21:05:28.339Z,25.10
2023-05-21T21:07:56.078Z,25.10
2023-05-21T21:10:23.222Z,25.10
2023-05-21T21:12:50.074Z,25.00
2023-05-21T21:15:17.073Z,25.10
2023-05-21T21:17:43.917Z,24.90
2023-05-21T21:20:12.839Z,24.80
2023-05-21T21:22:39.771Z,24.80
2023-05-21T21:25:07.153Z,24.80
2023-05-21T21:27:34.012Z,24.80
2023-05-21T21:30:00.790Z,24.80
2023-05-21T21:32:27.731Z,24.70
2023-05-21T21:34:54.991Z,24.70
2023-05-21T21:37:21.940Z,24.70
2023-05-21T21:39:48.716Z,24.60
2023-05-21T21:42:15.646Z,24.60
2023-05-21T21:44:42.816Z,24.50
2023-05-21T21:47:09.655Z,24.50
2023-05-21T21:49:36.467Z,24.50
2023-05-21T21:52:03.251Z,24.40
2023-05-21T21:54:30.016Z,24.40
2023-05-21T21:56:56.783Z,24.30
2023-05-21T21:59:23.546Z,24.40
2023-05-21T22:04:17.639Z,24.30
2023-05-21T22:06:45.812Z,24.20
2023-05-21T22:09:12.781Z,24.20
2023-05-21T22:11:39.732Z,24.20
2023-05-21T22:14:06.592Z,24.20
2023-05-21T22:16:33.958Z,24.10
2023-05-21T22:19:01.398Z,24.10
2023-05-21T22:21:29.214Z,24.10
2023-05-21T22:23:56.225Z,24.10
2023-05-21T22:26:23.284Z,24.10
2023-05-21T22:28:50.614Z,24.10
2023-05-21T22:31:17.693Z,24.00
2023-05-21T22:33:44.526Z,24.00
2023-05-21T22:36:11.592Z,24.00
2023-05-21T22:38:38.418Z,24.00
2023-05-21T22:41:06.622Z,24.00
2023-05-21T22:43:34.778Z,24.00
2023-05-21T22:46:01.888Z,24.00
2023-05-21T22:48:31.694Z,23.90
2023-05-21T22:50:58.498Z,23.90
2023-05-21T22:53:25.842Z,23.90
2023-05-21T22:55:53.055Z,23.80
2023-05-21T22:58:19.819Z,23.80
2023-05-21T23:00:48.012Z,23.80
2023-05-21T23:03:15.070Z,23.80
2023-05-21T23:05:41.946Z,23.80
2023-05-21T23:08:08.898Z,23.80
2023-05-21T23:10:35.739Z,23.70
2023-05-21T23:13:02.671Z,23.70
2023-05-21T23:15:29.540Z,23.70
2023-05-21T23:17:57.425Z,23.60
2023-05-21T23:20:24.663Z,23.60
2023-05-21T23:22:52.212Z,23.60
2023-05-21T23:25:18.982Z,23.60
2023-05-21T23:27:45.746Z,23.60
2023-05-21T23:30:12.632Z,23.60
2023-05-21T23:32:39.581Z,23.60
2023-05-21T23:35:07.566Z,23.60
2023-05-21T23:37:34.337Z,23.50
2023-05-21T23:40:01.206Z,23.50
2023-05-21T23:42:28.076Z,23.50
2023-05-21T23:44:54.998Z,23.50
2023-05-21T23:47:22.468Z,23.50
2023-05-21T23:49:49.286Z,23.50
2023-05-21T23:52:18.285Z,23.50
2023-05-21T23:54:45.142Z,23.40
2023-05-21T23:57:13.292Z,23.40
2023-05-21T23:59:40.506Z,23.40
